Latest Coastal Weather Observations for Hogan Island

IDT60701

Issued at 3:22 pm EST Sunday 18 August 2019 (issued every 10 minutes, with the page automatically refreshed every 10 minutes)

About coastal observations | Map of coastal stations | Coastal observations for TAS | Marine services | Other Formats
Station Details ID: 200838 Name: HOGAN ISLAND Lat: -39.22 Lon: 146.98 Height: 116.0 m
Data from the previous 72 hours. | See also: Recent months at Hogan Island
Date/Time
EST
Wind Sea
Height
m
Swell Vis
km
Cloud Weather Temp
°C
Press
hPa
Rain since
9am
mm
Dir  Spd
kts
Gust
kts
Height
m
Period
s
Dir
18/03:08pm WNW 22 38 - - - - - - - 14.1 1002.3 0.0
18/03:05pm WNW 21 25 - - - - - - - 14.3 1002.6 0.0
18/03:00pm NNE 21 25 - - - - - - - 14.6 1001.6 0.0
18/02:30pm NNE 24 29 - - - - - - - 15.4 1001.6 0.0
18/02:00pm NNE 25 30 - - - - - - - 15.7 1002.0 0.0
18/01:30pm N 27 32 - - - - - - - 15.9 1002.3 0.0
18/01:00pm N 27 32 - - - - - - - 15.6 1002.8 0.0
18/12:30pm NNE 25 30 - - - - - - - 14.6 1003.7 0.0
18/12:00pm NNE 26 31 - - - - - - - 14.5 1004.6 0.0
18/11:30am NNE 22 27 - - - - - - - 12.8 1005.6 0.0
18/11:00am NNE 20 23 - - - - - - - 12.7 1006.5 0.0
18/10:30am NNE 20 23 - - - - - - - 13.0 1007.0 0.0
18/10:00am NE 19 22 - - - - - - - 12.2 1007.5 0.0
18/09:30am NE 20 24 - - - - - - - 12.1 1008.0 0.0
18/09:00am NE 18 23 - - - - - - - 11.8 1008.2 0.2
18/08:00am NNE 17 22 - - - - - - - 11.5 1009.4 0.2
18/07:30am NNE 17 21 - - - - - - - 10.4 1009.8 0.2
18/07:00am NNE 17 21 - - - - - - - 10.5 1009.7 0.2
18/06:30am NNE 15 18 - - - - - - - 10.1 1009.9 0.2
18/06:00am N 16 22 - - - - - - - 10.1 1010.6 0.2
18/05:30am N 14 16 - - - - - - - 9.9 1010.5 0.2
18/05:00am N 14 18 - - - - - - - 9.7 1010.7 0.2
18/04:30am NNE 12 14 - - - - - - - 9.1 1011.0 0.2
18/04:00am N 12 16 - - - - - - - 9.5 1011.7 0.2
18/03:30am NNE 14 17 - - - - - - - 10.0 1011.9 0.2
18/03:00am NNE 14 16 - - - - - - - 9.9 1012.2 0.2
18/02:30am NNE 15 17 - - - - - - - 9.9 1013.2 0.0
18/02:00am NNE 17 21 - - - - - - - 10.1 1013.2 0.0
18/01:30am N 14 16 - - - - - - - 10.1 1014.3 0.0
18/01:00am N 13 16 - - - - - - - 10.2 1014.8 0.0
18/12:30am N 14 17 - - - - - - - 10.0 1015.1 0.0
18/12:00am N 15 17 - - - - - - - 10.2 1015.5 0.0
 
Date/Time
EST
Wind Sea
Height
m
Swell Vis
km
Cloud Weather Temp
°C
Press
hPa
Rain since
9am
mm
Dir  Spd
kts
Gust
kts
Height
m
Period
s
Dir
17/11:30pm NNE 15 18 - - - - - - - 10.5 1015.6 0.0
17/11:00pm NE 15 17 - - - - - - - 10.7 1015.6 0.0
17/10:30pm NE 15 17 - - - - - - - 10.8 1016.0 0.0
17/10:00pm ENE 16 17 - - - - - - - 10.7 1016.2 0.0
17/09:30pm ENE 17 20 - - - - - - - 10.5 1016.5 0.0
17/09:00pm E 17 20 - - - - - - - 10.5 1016.7 0.0
17/08:30pm ENE 18 21 - - - - - - - 10.4 1016.9 0.0
17/08:00pm E 18 21 - - - - - - - 10.6 1017.2 0.0
17/07:30pm E 17 20 - - - - - - - 10.4 1017.7 0.0
17/07:00pm ENE 16 19 - - - - - - - 10.3 1018.1 0.0
17/06:30pm ENE 14 16 - - - - - - - 10.6 1018.6 0.0
17/06:00pm ENE 14 16 - - - - - - - 10.1 1018.5 0.0
17/05:30pm ENE 19 23 - - - - - - - 10.1 1018.2 0.0
17/05:00pm ENE 18 21 - - - - - - - 10.8 1018.1 0.0
17/04:30pm ENE 15 17 - - - - - - - 11.0 1018.4 0.0
17/04:00pm ENE 14 17 - - - - - - - 11.4 1018.4 0.0
17/03:30pm E 14 17 - - - - - - - 11.8 1018.6 0.0
17/03:00pm E 14 16 - - - - - - - 12.2 1019.0 0.0
17/02:30pm E 13 15 - - - - - - - 12.4 1018.9 0.0
17/02:00pm ENE 11 13 - - - - - - - 13.0 1019.3 0.0
17/01:30pm E 12 15 - - - - - - - 12.7 1019.7 0.0
17/01:00pm E 10 14 - - - - - - - 12.9 1020.1 0.0
17/12:30pm E 11 13 - - - - - - - 12.8 1020.3 0.0
17/12:00pm E 12 15 - - - - - - - 13.1 1020.6 0.0
17/11:30am ESE 13 15 - - - - - - - 12.6 1020.7 0.0
17/11:00am ESE 11 12 - - - - - - - 12.2 1021.4 0.0
17/10:30am ESE 11 14 - - - - - - - 12.2 1021.5 0.0
17/10:00am ESE 12 14 - - - - - - - 11.7 1021.4 0.0
17/09:30am ESE 11 13 - - - - - - - 11.7 1021.4 0.0
17/09:00am ESE 9 11 - - - - - - - 12.0 1021.6 6.2
17/08:30am SSE 8 9 - - - - - - - 11.3 1021.4 6.2
17/08:00am SSE 7 9 - - - - - - - 10.2 1021.3 6.2
17/07:30am SSE 9 11 - - - - - - - 8.9 1020.8 6.2
17/07:00am S 8 9 - - - - - - - 8.4 1020.4 6.2
17/06:30am S 7 8 - - - - - - - 8.8 1020.4 6.2
17/06:00am SSE 10 13 - - - - - - - 8.6 1020.0 6.2
17/05:30am SSE 10 12 - - - - - - - 8.7 1019.6 6.2
17/05:00am S 11 13 - - - - - - - 9.0 1019.3 6.2
17/04:30am S 11 14 - - - - - - - 8.6 1018.9 6.2
17/04:00am S 12 14 - - - - - - - 8.7 1018.7 6.2
17/03:30am S 12 14 - - - - - - - 9.1 1018.5 6.2
17/03:00am S 13 15 - - - - - - - 9.0 1018.5 6.2
17/02:30am S 14 18 - - - - - - - 9.3 1018.5 6.2
17/02:00am S 16 20 - - - - - - - 9.6 1018.3 6.2
17/01:30am S 17 21 - - - - - - - 9.7 1018.0 6.2
17/01:00am S 20 23 - - - - - - - 9.8 1017.7 6.2
17/12:30am S 19 24 - - - - - - - 9.8 1017.4 6.2
17/12:00am S 18 21 - - - - - - - 9.9 1017.1 6.2
 
Date/Time
EST
Wind Sea
Height
m
Swell Vis
km
Cloud Weather Temp
°C
Press
hPa
Rain since
9am
mm
Dir  Spd
kts
Gust
kts
Height
m
Period
s
Dir
16/11:30pm S 19 23 - - - - - - - 10.0 1016.8 6.2
16/11:00pm S 17 21 - - - - - - - 9.9 1016.4 6.2
16/10:30pm S 15 18 - - - - - - - 10.0 1016.0 6.2
16/10:00pm S 16 20 - - - - - - - 10.0 1015.5 6.2
16/09:30pm S 16 20 - - - - - - - 9.8 1015.1 6.2
16/09:12pm S 16 21 - - - - - - - 10.2 1014.8 6.0
16/09:00pm SW 27 37 - - - - - - - 10.3 1014.6 5.4
16/08:30pm SW 31 37 - - - - - - - 10.4 1013.4 3.8
16/08:00pm WSW 36 44 - - - - - - - 9.9 1012.9 3.2
16/07:30pm WSW 39 44 - - - - - - - 10.1 1012.1 1.0
16/07:00pm W 39 44 - - - - - - - 10.5 1011.1 0.6
16/06:30pm W 36 42 - - - - - - - 10.7 1011.1 0.0
16/06:00pm W 37 41 - - - - - - - 10.6 1010.8 0.0
16/05:30pm W 36 41 - - - - - - - 10.5 1010.2 0.0
16/05:00pm W 36 43 - - - - - - - 10.6 1009.9 0.0
16/04:30pm W 40 46 - - - - - - - 10.8 1009.2 0.0
16/04:00pm W 39 45 - - - - - - - 10.7 1008.7 0.0
16/03:54pm W 39 45 - - - - - - - 10.8 1008.6 0.0
16/03:34pm WNW 33 43 - - - - - - - 11.4 1008.4 0.0
16/03:30pm WNW 32 37 - - - - - - - 11.6 1008.7 0.0
16/03:00pm WNW 36 42 - - - - - - - 12.1 1008.4 0.0
16/02:43pm WNW 41 47 - - - - - - - 12.4 1007.8 0.0
16/02:32pm WNW 30 40 - - - - - - - 12.5 1008.1 0.0
16/02:30pm WNW 30 37 - - - - - - - 12.5 1008.1 0.0
16/02:00pm W 30 36 - - - - - - - 12.5 1008.4 0.0
16/01:30pm WNW 29 34 - - - - - - - 13.6 1008.2 0.0
16/01:00pm NW 29 35 - - - - - - - 13.7 1008.2 0.0
16/12:30pm NW 27 36 - - - - - - - 14.5 1008.4 0.0
16/12:07pm NW 24 35 - - - - - - - 14.8 1009.1 0.0
16/12:00pm NW 22 29 - - - - - - - 15.2 1009.5 0.0
16/11:30am NW 25 31 - - - - - - - 14.6 1009.8 0.0
16/11:00am NW 24 29 - - - - - - - 14.4 1010.0 0.0
16/10:30am NNW 24 30 - - - - - - - 14.4 1010.2 0.0
16/10:00am NNW 21 29 - - - - - - - 13.7 1010.5 0.0
16/09:30am NNW 26 33 - - - - - - - 13.5 1010.1 0.0
16/09:00am NNW 27 33 - - - - - - - 13.9 1010.2 0.0
16/08:33am NNW 20 30 - - - - - - - 13.6 1010.9 0.0
16/08:30am NNW 19 28 - - - - - - - 13.5 1010.9 0.0
16/08:09am N 18 28 - - - - - - - 13.2 1011.3 0.0
16/08:00am N 21 28 - - - - - - - 13.4 1011.3 0.0
16/07:52am N 20 27 - - - - - - - 13.1 1011.5 0.0
16/07:30am N 13 16 - - - - - - - 13.0 1011.4 0.0
16/07:10am NNW 16 20 - - - - - - - 12.9 1011.5 0.0
16/07:00am NW 21 26 - - - - - - - 12.8 1011.5 0.0
16/06:39am NW 24 35 - - - - - - - 12.9 1011.8 0.0
16/06:30am NW 28 34 - - - - - - - 13.7 1011.6 0.0
16/06:09am NW 29 58 - - - - - - - 13.8 1011.3 0.0
16/06:00am WNW 43 58 - - - - - - - 14.5 1010.0 0.0
16/05:56am WNW 41 51 - - - - - - - 14.2 1010.2 0.0
16/05:54am WNW 39 48 - - - - - - - 14.0 1010.5 0.0
16/05:42am NNW 26 36 - - - - - - - 13.2 1011.3 0.0
16/05:30am NNW 25 33 - - - - - - - 13.3 1011.2 0.0
16/05:00am NNW 16 24 - - - - - - - 12.7 1011.2 0.0
16/04:30am NNW 18 23 - - - - - - - 12.6 1011.3 0.0
16/04:00am NNW 19 25 - - - - - - - 12.6 1011.6 0.0
16/03:30am NNW 22 25 - - - - - - - 12.5 1011.9 0.0
16/03:00am NNW 20 23 - - - - - - - 12.5 1012.6 0.0
16/02:30am NNW 15 19 - - - - - - - 12.0 1013.2 0.0
16/02:00am NNW 16 19 - - - - - - - 11.8 1013.6 0.0
16/01:30am NNW 15 19 - - - - - - - 11.6 1013.7 0.0
16/01:00am NNW 15 18 - - - - - - - 11.9 1013.8 0.0
16/12:30am NNW 16 20 - - - - - - - 12.2 1014.3 0.0
16/12:00am NNW 19 22 - - - - - - - 12.2 1014.6 0.0
 
Date/Time
EST
Wind Sea
Height
m
Swell Vis
km
Cloud Weather Temp
°C
Press
hPa
Rain since
9am
mm
Dir  Spd
kts
Gust
kts
Height
m
Period
s
Dir
15/11:30pm NW 19 23 - - - - - - - 12.3 1014.8 0.0
15/11:00pm NNW 17 20 - - - - - - - 12.1 1015.3 0.0
15/10:30pm NNW 18 22 - - - - - - - 12.3 1015.6 0.0
15/10:00pm NW 23 29 - - - - - - - 12.8 1015.5 0.0
15/09:30pm NW 23 30 - - - - - - - 13.1 1015.8 0.0
15/09:25pm NW 19 29 - - - - - - - 12.9 1016.0 0.0
15/09:00pm NW 19 24 - - - - - - - 12.6 1016.4 0.0
15/08:30pm NW 17 22 - - - - - - - 12.7 1016.4 0.0
15/08:00pm NW 19 25 - - - - - - - 12.8 1016.5 0.0
15/07:30pm NW 23 27 - - - - - - - 13.1 1016.3 0.0
15/07:00pm NW 22 29 - - - - - - - 13.2 1016.3 0.0
15/06:30pm WNW 28 32 - - - - - - - 13.3 1016.1 0.0
15/06:00pm WNW 32 35 - - - - - - - 13.7 1015.9 0.0
15/05:30pm WNW 32 37 - - - - - - - 13.7 1015.6 0.0
15/05:00pm NW 27 35 - - - - - - - 13.6 1015.5 0.0
15/04:30pm NW 27 34 - - - - - - - 13.4 1015.3 0.0
15/04:00pm NW 27 32 - - - - - - - 13.4 1015.5 0.0
15/03:30pm NW 31 37 - - - - - - - 13.4 1015.5 0.0

Other formats

Comma delimited format used in spreadsheet applications
http://www.bom.gov.au/fwo/IDT60701/IDT60701.94949.axf

JavaScript Object Notation format (JSON) in row-major order
http://www.bom.gov.au/fwo/IDT60701/IDT60701.94949.json

Data quality

Most of these data are generated automatically and are frequently updated. Quality checks on data are not normally performed. It is possible for incorrect values to appear. Refer to information at About Latest Weather Observations and please check the disclaimer before using these data.